Time;durP1;ratioP1;P1;durP2;ratioP2;P2;SDS_P1;SDS_P2;PMS_P1;PMS_P2;Temp;Humidity;BMP_temperature;BMP_pressure;BME280_temperature;BME280_humidity;BME280_pressure;Samples;Min_cycle;Max_cycle;Signal;HPM_P1;HPM_P2
2022/10/29 00:00:15;;;;;;;9.63;7.40;;;;;;;10.02;74.33;96198.47;5040089;28;20206;-71
2022/10/29 00:02:42;;;;;;;13.93;8.93;;;;;;;9.82;75.10;96192.81;5038842;28;20284;-71
2022/10/29 00:05:09;;;;;;;11.25;7.70;;;;;;;9.57;76.22;96193.97;5040089;28;20280;-71
2022/10/29 00:07:37;;;;;;;16.98;10.07;;;;;;;9.63;75.85;96189.66;5038119;28;20741;-71
2022/10/29 00:10:04;;;;;;;15.95;8.45;;;;;;;9.38;76.51;96190.81;5035987;28;20215;-72
2022/10/29 00:12:31;;;;;;;14.55;8.20;;;;;;;9.09;77.85;96191.94;5038419;28;21002;-71
2022/10/29 00:14:58;;;;;;;10.75;7.05;;;;;;;9.05;78.43;96184.38;5038681;28;21171;-71
2022/10/29 00:17:25;;;;;;;11.60;9.07;;;;;;;9.08;78.35;96180.13;5039206;28;20211;-71
2022/10/29 00:19:51;;;;;;;8.05;7.25;;;;;;;9.15;78.05;96185.97;5037148;28;20370;-71
2022/10/29 00:22:18;;;;;;;8.20;6.85;;;;;;;9.12;78.34;96181.75;5039676;28;20272;-72
2022/10/29 00:24:46;;;;;;;7.15;6.45;;;;;;;9.22;77.49;96182.50;5040028;28;20231;-71
2022/10/29 00:27:13;;;;;;;7.45;6.43;;;;;;;9.30;77.26;96180.72;5040143;28;20228;-72
2022/10/29 00:29:40;;;;;;;10.75;6.93;;;;;;;9.35;76.79;96181.53;5039072;28;20203;-71
2022/10/29 00:32:08;;;;;;;8.13;7.05;;;;;;;9.65;76.10;96180.31;5040297;28;20700;-72
2022/10/29 00:34:35;;;;;;;8.70;6.95;;;;;;;9.76;74.94;96180.19;5040695;28;20230;-71
2022/10/29 00:37:02;;;;;;;8.00;6.55;;;;;;;9.74;74.85;96169.22;5038242;28;20210;-71
2022/10/29 00:39:29;;;;;;;10.23;7.38;;;;;;;9.57;75.41;96186.34;5039318;28;21115;-71
2022/10/29 00:41:57;;;;;;;11.40;6.63;;;;;;;9.69;74.59;96174.34;5037923;28;20202;-72
2022/10/29 00:44:34;;;;;;;9.65;6.65;;;;;;;9.72;74.49;96174.31;5037772;28;21092;-71
2022/10/29 00:47:10;;;;;;;10.68;6.95;;;;;;;9.76;74.68;96167.50;5040022;28;20305;-71
2022/10/29 00:49:38;;;;;;;10.85;6.60;;;;;;;9.79;74.21;96170.84;5038117;28;20238;-71
2022/10/29 00:52:07;;;;;;;7.80;7.07;;;;;;;9.63;75.18;96171.91;5038367;28;20990;-71
2022/10/29 00:54:38;;;;;;;8.63;6.40;;;;;;;9.58;75.23;96173.66;5040099;28;20227;-72
2022/10/29 00:57:10;;;;;;;9.77;7.32;;;;;;;9.53;75.50;96168.63;5026597;28;20283;-71
2022/10/29 00:59:37;;;;;;;11.85;7.15;;;;;;;9.69;75.31;96160.81;5026193;28;20990;-71
2022/10/29 01:02:04;;;;;;;8.05;6.90;;;;;;;9.72;74.93;96161.59;5026782;28;20305;-71
2022/10/29 01:04:31;;;;;;;8.35;6.30;;;;;;;9.82;74.05;96160.66;5026108;28;20308;-71
2022/10/29 01:06:58;;;;;;;10.98;7.00;;;;;;;9.56;74.60;96157.59;5026542;28;20673;-72
2022/10/29 01:09:25;;;;;;;10.98;8.80;;;;;;;9.19;75.93;96152.09;5025678;28;20276;-71
2022/10/29 01:12:05;;;;;;;12.50;8.70;;;;;;;8.77;77.54;96154.19;5027733;28;20638;-72
2022/10/29 01:14:45;;;;;;;17.55;9.05;;;;;;;8.65;78.67;96149.25;5027969;28;21506;-70
2022/10/29 01:17:25;;;;;;;9.20;8.25;;;;;;;8.37;80.94;96148.66;5028364;28;20206;-73
2022/10/29 01:20:16;;;;;;;8.35;7.65;;;;;;;7.97;83.19;96153.09;5025910;28;20214;-71
2022/10/29 01:22:50;;;;;;;9.57;7.10;;;;;;;7.84;84.27;96146.44;5027110;28;20207;-72
2022/10/29 01:25:36;;;;;;;8.25;7.45;;;;;;;8.01;83.58;96156.44;5026046;28;20272;-72
2022/10/29 01:28:19;;;;;;;10.27;7.50;;;;;;;8.55;80.88;96151.88;5024804;28;20283;-71
2022/10/29 01:31:24;;;;;;;9.75;7.95;;;;;;;8.93;79.02;96148.97;5024536;28;20276;-71
2022/10/29 01:33:59;;;;;;;11.65;7.88;;;;;;;8.97;78.37;96148.09;5025491;28;20799;-71
2022/10/29 01:36:31;;;;;;;14.43;8.65;;;;;;;9.05;77.58;96146.34;5026362;28;20731;-71
2022/10/29 01:39:05;;;;;;;10.65;7.43;;;;;;;9.06;78.25;96146.31;5026398;28;20264;-72
2022/10/29 01:41:41;;;;;;;8.32;6.82;;;;;;;9.04;78.13;96147.19;5024706;28;20207;-72
2022/10/29 01:44:15;;;;;;;15.85;8.15;;;;;;;8.95;78.56;96147.28;5025850;28;20562;-73
2022/10/29 01:46:46;;;;;;;11.43;7.53;;;;;;;9.14;77.84;96144.56;5026728;28;20249;-73
2022/10/29 01:49:20;;;;;;;6.55;5.82;;;;;;;9.16;77.80;96136.91;5029840;28;20778;-71
2022/10/29 01:51:49;;;;;;;7.13;6.35;;;;;;;9.32;77.43;96129.97;5028477;28;20681;-71
2022/10/29 01:54:16;;;;;;;12.32;6.85;;;;;;;9.39;76.69;96129.91;5028967;28;20692;-72
2022/10/29 01:56:43;;;;;;;9.95;7.28;;;;;;;9.29;76.67;96133.38;5025213;28;20243;-72
2022/10/29 01:59:13;;;;;;;7.97;5.80;;;;;;;9.19;76.51;96130.09;5024980;28;20673;-72
2022/10/29 02:01:52;;;;;;;9.13;7.55;;;;;;;9.19;77.33;96131.78;5023531;28;20262;-71
2022/10/29 02:04:37;;;;;;;7.60;6.90;;;;;;;9.01;76.58;96126.94;5024689;28;20253;-73
2022/10/29 02:07:17;;;;;;;16.67;7.82;;;;;;;8.57;78.51;96130.75;5024475;28;20324;-71
2022/10/29 02:09:54;;;;;;;10.38;8.00;;;;;;;8.55;78.84;96127.38;5024782;28;20737;-70
2022/10/29 02:12:25;;;;;;;14.60;7.30;;;;;;;8.17;79.86;96130.16;5024536;28;20199;-70
2022/10/29 02:14:58;;;;;;;7.40;6.70;;;;;;;7.93;82.29;96126.09;5024381;28;20300;-71
2022/10/29 02:17:25;;;;;;;8.43;6.95;;;;;;;7.79;82.58;96125.38;5024412;28;20542;-72
2022/10/29 02:19:53;;;;;;;7.20;6.53;;;;;;;8.02;82.21;96130.28;5023851;28;21206;-71
2022/10/29 02:22:20;;;;;;;6.53;5.88;;;;;;;8.57;79.72;96130.75;5023672;28;20285;-70
2022/10/29 02:24:46;;;;;;;9.00;6.38;;;;;;;8.66;79.29;96140.78;5025064;28;20694;-70
2022/10/29 02:27:13;;;;;;;8.10;7.00;;;;;;;8.68;77.72;96128.94;5024106;28;20238;-70
2022/10/29 02:29:40;;;;;;;7.15;6.45;;;;;;;8.77;77.74;96133.94;5025114;28;20296;-70
2022/10/29 02:32:07;;;;;;;6.78;6.13;;;;;;;8.54;78.13;96125.69;5023155;28;20245;-71
2022/10/29 02:34:33;;;;;;;8.90;5.88;;;;;;;8.40;78.81;96124.97;5025440;28;20208;-71
2022/10/29 02:37:01;;;;;;;7.70;6.13;;;;;;;8.41;79.65;96129.19;5023877;28;20207;-70
2022/10/29 02:39:29;;;;;;;7.15;6.15;;;;;;;8.47;79.01;96124.91;5024309;28;20215;-71
2022/10/29 02:41:56;;;;;;;9.27;5.88;;;;;;;8.50;78.75;96118.97;5023274;28;20211;-70
2022/10/29 02:44:23;;;;;;;14.70;5.53;;;;;;;8.34;79.55;96122.50;5023807;28;20652;-71
2022/10/29 02:46:50;;;;;;;7.75;5.57;;;;;;;8.19;79.72;96124.25;5025224;28;20200;-72
2022/10/29 02:49:17;;;;;;;8.25;6.45;;;;;;;8.25;80.09;96117.47;5023708;28;20746;-70
2022/10/29 02:51:43;;;;;;;8.88;5.95;;;;;;;8.33;79.94;96118.28;5024149;28;20231;-70
2022/10/29 02:54:11;;;;;;;9.63;6.13;;;;;;;8.62;78.22;96118.03;5023701;28;21669;-70
2022/10/29 02:56:38;;;;;;;6.63;6.03;;;;;;;8.75;77.50;96117.91;5038263;28;20688;-71
2022/10/29 02:59:05;;;;;;;6.25;5.63;;;;;;;8.69;77.18;96120.47;5040935;28;20207;-70
2022/10/29 03:01:32;;;;;;;7.15;6.32;;;;;;;8.19;78.75;96119.19;5040527;28;20209;-71
2022/10/29 03:03:59;;;;;;;6.57;5.97;;;;;;;7.64;81.58;96112.81;5039077;28;20211;-71
2022/10/29 03:06:25;;;;;;;7.47;6.22;;;;;;;7.46;83.16;96122.16;5041560;28;20288;-71
2022/10/29 03:08:52;;;;;;;8.07;5.72;;;;;;;7.46;82.79;96114.56;5039291;28;20284;-71
2022/10/29 03:11:20;;;;;;;8.90;5.63;;;;;;;7.28;84.02;96116.34;5040868;28;20210;-71
2022/10/29 03:13:47;;;;;;;10.63;6.40;;;;;;;7.16;84.23;96117.25;5039497;28;20252;-74
2022/10/29 03:16:14;;;;;;;5.57;5.10;;;;;;;7.05;84.94;96117.28;5040694;28;20257;-71
2022/10/29 03:18:40;;;;;;;5.80;5.30;;;;;;;7.01;85.32;96114.75;5040370;28;20223;-71
2022/10/29 03:21:07;;;;;;;9.25;6.47;;;;;;;6.84;86.26;96112.28;5041529;28;20688;-72
2022/10/29 03:23:34;;;;;;;12.20;8.18;;;;;;;6.78;87.72;96110.59;5041088;28;21279;-71
2022/10/29 03:26:01;;;;;;;11.55;7.85;;;;;;;6.85;87.20;96108.06;5040224;28;20689;-71
2022/10/29 03:28:29;;;;;;;11.65;8.15;;;;;;;7.03;86.60;96113.06;5043426;28;20200;-71
2022/10/29 03:30:57;;;;;;;10.10;7.05;;;;;;;7.46;84.66;96116.25;5040246;28;20293;-72
2022/10/29 03:33:25;;;;;;;8.30;6.90;;;;;;;7.71;82.81;96106.84;5037432;28;20219;-71
2022/10/29 03:35:56;;;;;;;7.80;6.30;;;;;;;8.05;80.99;96105.78;5039604;28;20747;-71
2022/10/29 03:38:22;;;;;;;7.38;6.60;;;;;;;7.80;81.03;96109.34;5040612;28;20202;-71
2022/10/29 03:40:49;;;;;;;7.35;6.40;;;;;;;8.00;81.45;96104.97;5041612;28;20209;-70
2022/10/29 03:43:16;;;;;;;7.57;6.88;;;;;;;8.20;80.35;96103.13;5041429;28;20199;-71
2022/10/29 03:45:44;;;;;;;6.82;6.18;;;;;;;8.07;80.41;96093.97;5042035;28;20259;-73
2022/10/29 03:48:11;;;;;;;12.43;6.68;;;;;;;8.09;80.24;96101.56;5041325;28;20210;-71
2022/10/29 03:50:37;;;;;;;8.75;6.65;;;;;;;8.22;79.33;96102.28;5038028;28;20259;-72
2022/10/29 03:53:04;;;;;;;8.63;6.68;;;;;;;8.26;79.80;96098.88;5041758;28;20206;-71
2022/10/29 03:55:31;;;;;;;7.57;6.63;;;;;;;8.26;79.16;96103.94;5038505;28;20330;-71
2022/10/29 03:57:57;;;;;;;12.45;7.80;;;;;;;8.34;78.49;96102.22;5042035;28;20280;-72
2022/10/29 04:00:24;;;;;;;15.68;6.25;;;;;;;8.37;78.59;96105.59;5039539;28;20712;-71
2022/10/29 04:02:52;;;;;;;8.18;6.00;;;;;;;8.29;78.49;96104.75;5039127;28;20276;-71
2022/10/29 04:05:19;;;;;;;9.63;6.50;;;;;;;8.05;79.17;96105.78;5040363;28;20221;-71
2022/10/29 04:07:46;;;;;;;8.60;5.15;;;;;;;7.84;79.78;96101.72;5039187;28;20254;-71
2022/10/29 04:10:12;;;;;;;10.20;5.85;;;;;;;7.91;79.89;96097.47;5038680;28;21477;-71
2022/10/29 04:12:39;;;;;;;6.45;5.93;;;;;;;8.01;79.08;96100.75;5040188;28;20216;-71
2022/10/29 04:15:07;;;;;;;9.13;6.18;;;;;;;8.04;78.98;96099.03;5039369;28;20234;-72
2022/10/29 04:17:33;;;;;;;9.13;6.03;;;;;;;7.97;78.66;96102.47;5041521;28;20267;-72
2022/10/29 04:20:02;;;;;;;7.43;5.65;;;;;;;7.82;79.80;96107.63;5040070;28;20915;-71
2022/10/29 04:22:29;;;;;;;7.57;6.07;;;;;;;7.98;78.48;96110.91;5039043;28;20271;-72
2022/10/29 04:24:55;;;;;;;8.27;7.00;;;;;;;8.09;78.35;96112.53;5039698;28;20274;-73
2022/10/29 04:27:22;;;;;;;8.93;7.05;;;;;;;7.70;79.79;96110.22;5016392;28;20517;-71
2022/10/29 04:29:49;;;;;;;8.23;6.47;;;;;;;7.29;80.78;96116.34;5038053;28;20979;-71
2022/10/29 04:32:15;;;;;;;10.10;6.88;;;;;;;7.04;82.79;96114.75;5036047;28;20275;-71
2022/10/29 04:34:42;;;;;;;9.25;6.47;;;;;;;6.88;84.14;96119.00;5039219;28;21111;-71
2022/10/29 04:37:10;;;;;;;6.70;6.05;;;;;;;6.81;84.98;96117.34;5038302;28;20226;-71
2022/10/29 04:39:37;;;;;;;11.73;6.60;;;;;;;6.70;86.15;96124.91;5037523;28;20214;-72
2022/10/29 04:42:04;;;;;;;9.98;6.80;;;;;;;6.88;86.07;96123.22;5040597;28;20538;-71
2022/10/29 04:44:30;;;;;;;8.50;6.93;;;;;;;6.72;86.20;96124.91;5038750;28;20215;-70
2022/10/29 04:46:57;;;;;;;10.43;7.38;;;;;;;6.72;85.47;96130.81;5036302;28;20203;-72
2022/10/29 04:49:24;;;;;;;7.72;6.88;;;;;;;6.76;84.86;96132.50;5039109;28;20215;-71
2022/10/29 04:51:51;;;;;;;11.00;7.38;;;;;;;6.77;84.63;96125.75;5040175;28;20214;-72
2022/10/29 04:54:19;;;;;;;13.15;7.65;;;;;;;6.83;85.39;96121.53;5039537;28;20646;-71
2022/10/29 04:56:46;;;;;;;10.70;8.70;;;;;;;6.96;83.93;96113.91;5038022;28;20281;-71
2022/10/29 04:59:13;;;;;;;17.52;9.70;;;;;;;7.09;83.60;96115.56;5037787;28;20211;-73
2022/10/29 05:01:39;;;;;;;17.15;8.93;;;;;;;7.16;83.27;96114.72;5039888;28;20202;-72
2022/10/29 05:04:06;;;;;;;9.30;8.40;;;;;;;7.24;82.77;96117.19;5040552;28;21093;-71
2022/10/29 05:06:33;;;;;;;13.38;9.07;;;;;;;7.23;83.58;96112.97;5038560;28;20222;-72
2022/10/29 05:09:00;;;;;;;21.98;10.48;;;;;;;7.18;83.69;96120.56;5038851;28;20710;-71
2022/10/29 05:11:28;;;;;;;13.52;9.55;;;;;;;7.48;82.92;96120.47;5038441;28;20203;-72
2022/10/29 05:13:55;;;;;;;12.25;9.75;;;;;;;7.72;81.28;96118.66;5039917;28;20270;-72
2022/10/29 05:16:21;;;;;;;19.23;10.73;;;;;;;7.73;82.03;96118.66;5038435;28;20326;-72
2022/10/29 05:18:48;;;;;;;24.13;11.57;;;;;;;8.07;81.88;96123.50;5039361;28;20214;-72
2022/10/29 05:21:15;;;;;;;17.85;10.70;;;;;;;8.41;79.77;96121.59;5037321;28;20659;-71
2022/10/29 05:23:42;;;;;;;23.13;10.82;;;;;;;8.65;79.21;96120.53;5041862;28;20684;-72
2022/10/29 05:26:08;;;;;;;21.92;12.13;;;;;;;8.79;78.19;96114.47;5040196;28;20195;-71
2022/10/29 05:28:36;;;;;;;31.90;12.35;;;;;;;8.93;77.78;96118.56;5043068;28;20296;-70
2022/10/29 05:31:03;;;;;;;28.75;12.00;;;;;;;9.24;76.27;96119.06;5042602;28;20295;-71
2022/10/29 05:33:30;;;;;;;26.15;12.00;;;;;;;9.38;76.02;96118.06;5043233;28;20206;-71
2022/10/29 05:35:59;;;;;;;20.30;11.68;;;;;;;9.46;75.50;96128.94;5040769;28;20929;-72
2022/10/29 05:38:25;;;;;;;35.90;13.80;;;;;;;9.47;74.73;96129.78;5042652;28;20216;-71
2022/10/29 05:40:52;;;;;;;25.77;12.52;;;;;;;9.48;75.01;96129.75;5043048;28;20295;-72
2022/10/29 05:43:19;;;;;;;34.08;13.50;;;;;;;9.43;75.06;96126.44;5042489;28;20206;-71
2022/10/29 05:45:47;;;;;;;29.50;13.68;;;;;;;9.39;75.12;96142.56;5042681;28;20202;-73
2022/10/29 05:48:14;;;;;;;27.67;14.30;;;;;;;9.35;75.71;96138.41;5042965;28;20280;-71
2022/10/29 05:50:40;;;;;;;19.58;13.15;;;;;;;9.55;75.31;96133.91;5043062;28;20283;-71
2022/10/29 05:53:10;;;;;;;30.25;10.95;;;;;;;9.61;75.87;96135.53;5043966;28;20304;-71
2022/10/29 05:55:37;;;;;;;22.67;12.02;;;;;;;9.95;74.42;96142.69;5043114;28;20241;-72
2022/10/29 05:58:06;;;;;;;34.63;16.10;;;;;;;10.13;73.97;96138.22;5040340;28;20240;-71
2022/10/29 06:00:35;;;;;;;27.92;15.55;;;;;;;11.07;70.47;96128.19;5042627;28;20203;-72
2022/10/29 06:03:03;;;;;;;30.27;14.77;;;;;;;12.34;65.95;96130.66;5041587;28;21710;-72
2022/10/29 06:05:29;;;;;;;38.00;15.23;;;;;;;13.71;61.08;96134.75;5043756;28;20206;-72
2022/10/29 06:07:57;;;;;;;28.33;12.43;;;;;;;14.01;60.18;96140.69;5041642;28;20709;-72
2022/10/29 06:10:25;;;;;;;19.15;11.95;;;;;;;14.40;58.27;96130.94;5042160;28;20237;-71
2022/10/29 06:12:52;;;;;;;11.77;7.97;;;;;;;14.38;58.09;96145.50;5042373;28;20269;-72
2022/10/29 06:15:19;;;;;;;9.10;7.80;;;;;;;15.86;54.97;96141.34;5043730;28;20277;-72
2022/10/29 06:17:47;;;;;;;8.70;7.05;;;;;;;16.45;51.76;96140.78;5026618;28;20330;-71
2022/10/29 06:20:17;;;;;;;11.18;8.00;;;;;;;16.04;52.43;96132.97;5040105;28;20287;-71
2022/10/29 06:22:44;;;;;;;11.38;7.35;;;;;;;15.76;53.72;96134.91;5043961;28;20203;-72
2022/10/29 06:25:11;;;;;;;25.65;17.20;;;;;;;15.00;55.96;96140.94;5042868;28;20210;-73
2022/10/29 06:27:38;;;;;;;19.75;13.50;;;;;;;13.88;58.90;96150.41;5043502;28;20281;-72
2022/10/29 06:30:06;;;;;;;19.05;7.35;;;;;;;13.12;61.42;96139.75;5041174;28;20203;-73
2022/10/29 06:32:32;;;;;;;11.32;6.47;;;;;;;12.92;62.25;96143.66;5043214;28;20224;-70
2022/10/29 06:34:59;;;;;;;11.85;6.47;;;;;;;13.17;61.42;96136.22;5042384;28;20203;-72
2022/10/29 06:37:28;;;;;;;8.65;5.85;;;;;;;13.53;60.67;96136.94;5041090;28;20234;-71
2022/10/29 06:39:55;;;;;;;9.13;6.75;;;;;;;13.58;60.06;96145.31;5042190;28;20293;-71
2022/10/29 06:42:21;;;;;;;10.05;7.10;;;;;;;13.33;61.06;96141.78;5042157;28;20283;-74
2022/10/29 06:44:48;;;;;;;15.32;8.25;;;;;;;13.09;61.95;96150.06;5043280;28;20279;-72
2022/10/29 06:47:15;;;;;;;23.63;12.95;;;;;;;12.66;63.10;96143.47;5041425;28;20263;-71
2022/10/29 06:49:42;;;;;;;32.20;14.85;;;;;;;12.46;63.85;96143.09;5039947;28;20211;-73
2022/10/29 06:52:09;;;;;;;40.90;21.17;;;;;;;12.99;62.85;96149.44;5042031;28;20218;-71
2022/10/29 06:54:37;;;;;;;19.73;12.88;;;;;;;13.06;61.95;96135.66;5042367;28;20206;-71
2022/10/29 06:57:03;;;;;;;26.63;16.42;;;;;;;12.77;63.21;96148.31;5039862;28;20769;-70
2022/10/29 06:59:30;;;;;;;13.02;9.77;;;;;;;12.72;63.06;96142.47;5040815;28;20688;-75
2022/10/29 07:01:57;;;;;;;12.77;8.80;;;;;;;12.50;63.19;96139.63;5042354;28;20292;-71
2022/10/29 07:04:24;;;;;;;29.80;17.48;;;;;;;12.25;64.86;96150.38;5041331;28;20647;-72
2022/10/29 07:06:50;;;;;;;16.58;8.90;;;;;;;12.10;65.23;96145.66;5041650;28;21569;-71
2022/10/29 07:09:18;;;;;;;18.13;9.57;;;;;;;12.02;66.07;96151.78;5041206;28;20217;-71
2022/10/29 07:11:46;;;;;;;13.48;8.57;;;;;;;12.25;65.20;96152.09;5040720;28;20910;-72
2022/10/29 07:14:13;;;;;;;12.52;8.63;;;;;;;12.29;65.09;96155.41;5041552;28;21890;-72
2022/10/29 07:16:40;;;;;;;37.88;22.73;;;;;;;12.42;64.71;96156.78;5041819;28;20319;-72
2022/10/29 07:19:06;;;;;;;34.85;22.08;;;;;;;12.75;64.25;96156.00;5040918;28;20701;-71
2022/10/29 07:21:33;;;;;;;23.02;10.35;;;;;;;13.48;61.72;96154.13;5040603;28;20218;-72
2022/10/29 07:24:00;;;;;;;14.90;8.40;;;;;;;14.41;58.41;96153.13;5041971;28;20207;-72
2022/10/29 07:26:27;;;;;;;8.35;6.72;;;;;;;15.35;55.79;96157.66;5039785;28;20216;-72
2022/10/29 07:28:57;;;;;;;13.63;8.13;;;;;;;15.36;55.38;96146.53;5041059;28;20711;-73
2022/10/29 07:31:24;;;;;;;13.73;8.60;;;;;;;15.83;54.47;96147.44;5040742;28;20623;-72
2022/10/29 07:33:51;;;;;;;10.48;9.38;;;;;;;17.93;48.67;96149.09;5041587;28;20758;-72
2022/10/29 07:36:17;;;;;;;16.50;9.02;;;;;;;19.30;45.69;96139.13;5040733;28;20210;-72
2022/10/29 07:38:44;;;;;;;11.40;8.88;;;;;;;19.83;43.70;96138.06;5041956;28;20206;-73
2022/10/29 07:41:11;;;;;;;19.58;10.40;;;;;;;19.30;44.56;96142.50;5040914;28;20233;-73
2022/10/29 07:43:38;;;;;;;15.52;10.50;;;;;;;18.57;45.92;96145.25;5041215;28;20210;-71
2022/10/29 07:46:06;;;;;;;12.75;10.48;;;;;;;17.13;49.40;96145.72;5041187;28;20234;-73
2022/10/29 07:48:33;;;;;;;13.13;9.73;;;;;;;15.95;52.84;96141.84;5039652;28;20274;-72
2022/10/29 07:51:01;;;;;;;20.60;9.50;;;;;;;15.81;54.29;96143.25;5042084;28;20354;-71
2022/10/29 07:53:30;;;;;;;12.38;9.90;;;;;;;16.69;51.82;96144.16;5038238;28;20202;-72
2022/10/29 07:55:57;;;;;;;10.93;8.88;;;;;;;17.90;49.04;96141.50;5038707;28;20241;-71
2022/10/29 07:58:24;;;;;;;19.33;11.38;;;;;;;19.20;46.08;96135.31;5040104;28;20284;-70
2022/10/29 08:00:51;;;;;;;20.40;14.13;;;;;;;20.54;45.19;96123.88;5040359;28;20689;-69
2022/10/29 08:03:19;;;;;;;10.82;8.38;;;;;;;23.19;37.85;96123.16;5038758;28;20255;-68
2022/10/29 08:05:48;;;;;;;20.75;14.43;;;;;;;26.12;32.40;96112.28;5040987;28;20260;-69
2022/10/29 08:08:16;;;;;;;15.30;11.60;;;;;;;28.74;29.25;96099.69;5040750;28;20249;-69
2022/10/29 08:10:43;;;;;;;14.15;8.20;;;;;;;28.82;27.63;96103.47;5039405;28;20213;-69
2022/10/29 08:13:10;;;;;;;14.00;8.70;;;;;;;29.60;26.08;96090.13;5041122;28;20290;-70
2022/10/29 08:15:37;;;;;;;9.38;8.30;;;;;;;28.78;26.46;96089.78;5038535;28;20227;-70
2022/10/29 08:18:10;;;;;;;15.30;8.50;;;;;;;28.31;27.47;96097.47;5036873;28;20802;-72
2022/10/29 08:20:39;;;;;;;29.75;20.50;;;;;;;27.37;29.05;96095.13;5041189;28;20279;-73
2022/10/29 08:23:05;;;;;;;12.73;7.90;;;;;;;27.73;28.43;96094.63;5039054;28;20216;-71
2022/10/29 08:25:32;;;;;;;10.23;8.88;;;;;;;28.34;27.70;96089.34;5041081;28;20291;-73
2022/10/29 08:28:00;;;;;;;11.65;8.00;;;;;;;28.70;27.53;96087.06;5038743;28;20203;-71
2022/10/29 08:30:27;;;;;;;11.50;8.73;;;;;;;29.70;26.12;96098.78;5040519;28;20202;-71
2022/10/29 08:32:54;;;;;;;9.30;8.27;;;;;;;30.19;25.35;96096.78;5040364;28;20206;-71
2022/10/29 08:35:21;;;;;;;29.88;19.50;;;;;;;30.71;24.89;96081.28;5041070;28;20214;-72
2022/10/29 08:37:50;;;;;;;29.42;17.33;;;;;;;31.40;23.68;96077.91;5037317;28;20847;-73
2022/10/29 08:40:28;;;;;;;21.63;14.50;;;;;;;30.21;25.15;96084.34;5037765;28;20289;-71
2022/10/29 08:43:19;;;;;;;15.25;8.95;;;;;;;31.18;24.08;96078.44;5039726;28;20791;-72
2022/10/29 08:45:47;;;;;;;10.45;7.95;;;;;;;32.17;23.07;96070.91;5036633;28;20210;-72
2022/10/29 08:48:36;;;;;;;15.60;7.50;;;;;;;31.88;23.15;96071.28;5038936;28;20660;-71
2022/10/29 08:51:09;;;;;;;9.57;8.13;;;;;;;32.78;22.28;96065.31;5040669;28;20224;-72
2022/10/29 08:53:42;;;;;;;15.43;8.32;;;;;;;31.81;22.77;96060.56;5039498;28;20215;-71
2022/10/29 08:56:15;;;;;;;9.38;7.78;;;;;;;32.18;23.11;96060.19;5039155;28;20238;-71
2022/10/29 08:58:48;;;;;;;9.70;6.90;;;;;;;31.97;23.23;96059.81;5037875;28;20222;-72
2022/10/29 09:01:15;;;;;;;7.88;7.10;;;;;;;31.81;23.34;96065.84;5037889;28;20218;-72
2022/10/29 09:03:42;;;;;;;25.85;18.80;;;;;;;31.63;23.83;96058.00;5038374;28;21856;-70
2022/10/29 09:06:12;;;;;;;41.38;29.05;;;;;;;30.49;24.69;96060.69;5037293;28;20206;-71
2022/10/29 09:09:08;;;;;;;11.90;9.50;;;;;;;30.40;25.21;96055.41;5038534;28;20207;-71
2022/10/29 09:11:58;;;;;;;7.78;7.00;;;;;;;30.91;24.45;96055.72;5040128;28;20225;-72
2022/10/29 09:14:37;;;;;;;13.00;7.15;;;;;;;30.34;24.54;96045.50;5040522;28;20215;-72
2022/10/29 09:17:14;;;;;;;7.78;7.00;;;;;;;29.15;26.44;96047.22;5037823;28;20226;-72
2022/10/29 09:19:56;;;;;;;12.88;6.28;;;;;;;29.24;26.53;96046.38;5039462;28;20205;-71
2022/10/29 09:22:31;;;;;;;7.40;6.68;;;;;;;29.40;25.88;96044.03;5039631;28;20210;-71
2022/10/29 09:25:11;;;;;;;7.40;6.57;;;;;;;29.70;26.39;96038.50;5040018;28;20209;-71
2022/10/29 09:27:52;;;;;;;7.88;7.10;;;;;;;29.07;26.90;96043.53;5039184;28;20206;-72
2022/10/29 09:30:20;;;;;;;16.52;7.90;;;;;;;28.22;28.50;96037.31;5036729;28;20650;-71
2022/10/29 09:32:56;;;;;;;14.13;7.80;;;;;;;28.00;28.18;96033.94;5037965;28;20385;-72
2022/10/29 09:35:37;;;;;;;10.18;8.43;;;;;;;26.65;30.37;96030.66;5038407;28;20822;-70
2022/10/29 09:38:12;;;;;;;29.80;17.85;;;;;;;25.96;31.95;96034.53;5038736;28;20249;-71
2022/10/29 09:40:41;;;;;;;7.85;6.93;;;;;;;25.24;32.76;96040.06;5039201;28;20209;-71
2022/10/29 09:43:19;;;;;;;16.55;7.63;;;;;;;24.67;34.17;96032.28;5040174;28;20206;-72
2022/10/29 09:45:53;;;;;;;25.80;12.07;;;;;;;23.94;35.24;96032.38;5038907;28;20759;-71
2022/10/29 09:48:27;;;;;;;14.68;9.30;;;;;;;22.46;37.94;96033.84;5037818;28;20374;-71
2022/10/29 09:51:03;;;;;;;13.88;9.38;;;;;;;21.99;39.19;96030.75;5038112;28;21638;-71
2022/10/29 09:53:30;;;;;;;8.73;7.82;;;;;;;20.77;42.02;96026.19;5039731;28;20737;-71
2022/10/29 09:55:58;;;;;;;9.95;8.43;;;;;;;20.68;42.29;96017.19;5038181;28;20274;-71
2022/10/29 09:58:26;;;;;;;10.70;7.15;;;;;;;20.79;42.77;96021.75;5037270;28;20227;-71
2022/10/29 10:00:56;;;;;;;11.55;7.35;;;;;;;20.86;42.73;96020.44;5038979;28;20297;-71
2022/10/29 10:03:28;;;;;;;8.15;6.93;;;;;;;21.01;42.88;96004.88;5037112;28;20200;-72
2022/10/29 10:06:01;;;;;;;7.47;5.38;;;;;;;21.28;42.05;95999.81;5038797;28;20289;-71
2022/10/29 10:08:28;;;;;;;6.68;5.53;;;;;;;21.34;41.46;95996.03;5037124;28;20730;-70
2022/10/29 10:10:59;;;;;;;7.00;4.63;;;;;;;21.13;41.82;95998.13;5039629;28;20203;-70
2022/10/29 10:13:28;;;;;;;6.00;5.35;;;;;;;21.29;41.59;95985.97;5040872;28;20235;-72
2022/10/29 10:15:57;;;;;;;7.30;5.97;;;;;;;21.28;41.32;95983.50;5041006;28;20302;-70
2022/10/29 10:18:26;;;;;;;11.23;5.25;;;;;;;21.19;42.09;95978.84;5038960;28;20231;-71
2022/10/29 10:21:11;;;;;;;16.38;12.18;;;;;;;21.39;41.78;95973.31;5039933;28;20335;-71
2022/10/29 10:23:44;;;;;;;7.20;5.90;;;;;;;21.23;42.05;95972.59;5040791;28;20643;-69
2022/10/29 10:26:31;;;;;;;11.98;7.38;;;;;;;21.53;42.47;95960.34;5039933;28;20275;-68
2022/10/29 10:29:13;;;;;;;8.13;6.70;;;;;;;21.61;42.29;95960.69;5028451;28;20209;-69
2022/10/29 10:31:40;;;;;;;10.90;7.78;;;;;;;21.50;43.07;95950.22;5041949;28;20206;-67
2022/10/29 10:34:16;;;;;;;7.63;6.40;;;;;;;21.57;42.06;95950.63;5040892;28;20284;-67
2022/10/29 10:36:47;;;;;;;6.00;4.65;;;;;;;21.56;42.30;95949.81;5042862;28;20210;-70
2022/10/29 10:39:26;;;;;;;5.40;4.93;;;;;;;21.34;42.87;95939.97;5039411;28;20242;-68
2022/10/29 10:41:55;;;;;;;11.15;7.68;;;;;;;21.29;44.77;95947.19;5040193;28;20203;-69
2022/10/29 10:44:23;;;;;;;4.55;4.13;;;;;;;20.99;43.60;95939.53;5041867;28;20207;-69
2022/10/29 10:46:52;;;;;;;6.20;4.82;;;;;;;21.07;45.51;95926.13;5042624;28;20203;-69
2022/10/29 10:49:28;;;;;;;6.05;4.63;;;;;;;20.81;43.69;95930.28;5040852;28;20787;-68
2022/10/29 10:51:56;;;;;;;5.07;3.28;;;;;;;20.51;44.76;95924.38;5042578;28;20207;-68
2022/10/29 10:54:31;;;;;;;4.25;3.83;;;;;;;20.47;45.27;95925.47;5040131;28;20716;-70
2022/10/29 10:57:01;;;;;;;7.55;4.75;;;;;;;20.95;45.74;95916.56;5040352;28;20243;-68
2022/10/29 10:59:44;;;;;;;5.22;4.78;;;;;;;21.21;43.81;95907.22;5041305;28;20277;-68
2022/10/29 11:02:23;;;;;;;6.63;4.85;;;;;;;21.32;43.63;95904.78;5039487;28;20641;-69
2022/10/29 11:04:56;;;;;;;5.80;4.70;;;;;;;21.46;43.13;95898.78;5042131;28;20245;-69
2022/10/29 11:07:25;;;;;;;4.32;3.88;;;;;;;21.47;42.89;95900.44;5040748;28;20676;-69
2022/10/29 11:09:54;;;;;;;6.97;3.25;;;;;;;21.34;42.88;95905.53;5039957;28;20230;-69
2022/10/29 11:12:30;;;;;;;3.20;2.95;;;;;;;21.54;43.63;95896.50;5040698;28;20206;-69
2022/10/29 11:15:01;;;;;;;3.72;3.17;;;;;;;21.80;42.81;95894.84;5040845;28;20313;-69
2022/10/29 11:17:36;;;;;;;3.78;3.55;;;;;;;21.94;42.56;95887.84;5039753;28;20664;-70
2022/10/29 11:20:13;;;;;;;2.88;2.67;;;;;;;22.04;41.93;95877.75;5039974;28;20211;-69
2022/10/29 11:22:52;;;;;;;4.88;3.83;;;;;;;22.24;41.92;95874.69;5041939;28;20361;-69
2022/10/29 11:25:25;;;;;;;3.13;2.78;;;;;;;22.31;41.30;95870.72;5039219;28;20257;-70
2022/10/29 11:28:00;;;;;;;4.60;2.60;;;;;;;22.13;40.91;95873.72;5038941;28;20203;-69
2022/10/29 11:30:31;;;;;;;3.85;3.13;;;;;;;21.98;41.21;95870.38;5039057;28;20700;-69
2022/10/29 11:33:06;;;;;;;6.28;3.47;;;;;;;21.60;41.89;95863.31;5041033;28;20288;-69
2022/10/29 11:35:41;;;;;;;4.43;4.03;;;;;;;21.68;41.83;95863.66;5040862;28;20229;-69
2022/10/29 11:38:15;;;;;;;4.63;4.20;;;;;;;21.08;42.66;95860.59;5038009;28;20222;-69
2022/10/29 11:40:47;;;;;;;3.10;2.90;;;;;;;21.12;42.43;95861.22;5039610;28;20207;-70
2022/10/29 11:43:19;;;;;;;3.60;3.25;;;;;;;21.17;42.48;95852.28;5040106;28;20210;-69